sensor_id;sensor_type;location;lat;lon;timestamp;P1;durP1;ratioP1;P2;durP2;ratioP2
60935;SDS011;46804;51.786;19.520;2024-02-14T00:01:03;25.13;;;10.38;;
60935;SDS011;46804;51.786;19.520;2024-02-14T00:05:14;24.88;;;11.05;;
60935;SDS011;46804;51.786;19.520;2024-02-14T00:09:16;27.33;;;11.70;;
60935;SDS011;46804;51.786;19.520;2024-02-14T00:13:16;32.03;;;11.68;;
60935;SDS011;46804;51.786;19.520;2024-02-14T00:17:18;35.35;;;16.83;;
60935;SDS011;46804;51.786;19.520;2024-02-14T00:21:19;32.90;;;13.63;;
60935;SDS011;46804;51.786;19.520;2024-02-14T00:25:20;26.02;;;13.70;;
60935;SDS011;46804;51.786;19.520;2024-02-14T00:29:20;27.38;;;12.50;;
60935;SDS011;46804;51.786;19.520;2024-02-14T00:33:21;23.80;;;12.00;;
60935;SDS011;46804;51.786;19.520;2024-02-14T00:37:22;24.00;;;12.38;;
60935;SDS011;46804;51.786;19.520;2024-02-14T00:41:23;27.90;;;10.07;;
60935;SDS011;46804;51.786;19.520;2024-02-14T00:45:24;16.45;;;9.70;;
60935;SDS011;46804;51.786;19.520;2024-02-14T00:49:25;20.55;;;8.80;;
60935;SDS011;46804;51.786;19.520;2024-02-14T00:53:26;22.75;;;10.05;;
60935;SDS011;46804;51.786;19.520;2024-02-14T00:57:27;38.00;;;12.48;;
60935;SDS011;46804;51.786;19.520;2024-02-14T01:01:27;24.77;;;10.45;;
60935;SDS011;46804;51.786;19.520;2024-02-14T01:05:28;24.40;;;10.88;;
60935;SDS011;46804;51.786;19.520;2024-02-14T01:09:29;33.10;;;12.57;;
60935;SDS011;46804;51.786;19.520;2024-02-14T01:13:30;23.92;;;11.45;;
60935;SDS011;46804;51.786;19.520;2024-02-14T01:17:30;29.95;;;11.13;;
60935;SDS011;46804;51.786;19.520;2024-02-14T01:21:31;26.08;;;11.02;;
60935;SDS011;46804;51.786;19.520;2024-02-14T01:25:32;23.15;;;10.65;;
60935;SDS011;46804;51.786;19.520;2024-02-14T01:29:33;20.55;;;9.70;;
60935;SDS011;46804;51.786;19.520;2024-02-14T01:33:34;24.48;;;10.85;;
60935;SDS011;46804;51.786;19.520;2024-02-14T01:37:35;23.25;;;10.13;;
60935;SDS011;46804;51.786;19.520;2024-02-14T01:41:44;19.85;;;9.68;;
60935;SDS011;46804;51.786;19.520;2024-02-14T01:45:46;19.17;;;9.38;;
60935;SDS011;46804;51.786;19.520;2024-02-14T01:49:47;23.15;;;10.05;;
60935;SDS011;46804;51.786;19.520;2024-02-14T01:53:48;18.65;;;8.57;;
60935;SDS011;46804;51.786;19.520;2024-02-14T01:57:49;19.02;;;9.02;;
60935;SDS011;46804;51.786;19.520;2024-02-14T02:01:50;25.20;;;10.75;;
60935;SDS011;46804;51.786;19.520;2024-02-14T02:09:55;24.60;;;10.68;;
60935;SDS011;46804;51.786;19.520;2024-02-14T02:13:56;20.15;;;10.13;;
60935;SDS011;46804;51.786;19.520;2024-02-14T02:17:57;22.60;;;11.20;;
60935;SDS011;46804;51.786;19.520;2024-02-14T02:21:57;22.75;;;11.07;;
60935;SDS011;46804;51.786;19.520;2024-02-14T02:25:59;27.50;;;12.57;;
60935;SDS011;46804;51.786;19.520;2024-02-14T02:30:00;23.85;;;10.65;;
60935;SDS011;46804;51.786;19.520;2024-02-14T02:34:01;18.52;;;9.85;;
60935;SDS011;46804;51.786;19.520;2024-02-14T02:38:03;25.17;;;12.30;;
60935;SDS011;46804;51.786;19.520;2024-02-14T02:42:04;26.02;;;13.07;;
60935;SDS011;46804;51.786;19.520;2024-02-14T02:46:04;27.80;;;13.02;;
60935;SDS011;46804;51.786;19.520;2024-02-14T02:50:05;25.85;;;13.23;;
60935;SDS011;46804;51.786;19.520;2024-02-14T02:54:08;28.98;;;12.75;;
60935;SDS011;46804;51.786;19.520;2024-02-14T02:58:12;22.20;;;11.60;;
60935;SDS011;46804;51.786;19.520;2024-02-14T03:02:16;25.63;;;12.32;;
60935;SDS011;46804;51.786;19.520;2024-02-14T03:06:17;24.90;;;12.40;;
60935;SDS011;46804;51.786;19.520;2024-02-14T03:10:18;28.50;;;13.45;;
60935;SDS011;46804;51.786;19.520;2024-02-14T03:14:19;28.52;;;12.77;;
60935;SDS011;46804;51.786;19.520;2024-02-14T03:18:20;27.23;;;13.35;;
60935;SDS011;46804;51.786;19.520;2024-02-14T03:22:21;22.98;;;12.38;;
60935;SDS011;46804;51.786;19.520;2024-02-14T03:26:21;24.48;;;13.05;;
60935;SDS011;46804;51.786;19.520;2024-02-14T03:30:22;28.42;;;13.60;;
60935;SDS011;46804;51.786;19.520;2024-02-14T03:34:23;38.08;;;13.68;;
60935;SDS011;46804;51.786;19.520;2024-02-14T03:38:26;26.35;;;13.52;;
60935;SDS011;46804;51.786;19.520;2024-02-14T03:42:27;28.92;;;13.10;;
60935;SDS011;46804;51.786;19.520;2024-02-14T03:46:28;25.30;;;11.27;;
60935;SDS011;46804;51.786;19.520;2024-02-14T03:50:29;30.52;;;11.95;;
60935;SDS011;46804;51.786;19.520;2024-02-14T03:54:30;28.45;;;12.38;;
60935;SDS011;46804;51.786;19.520;2024-02-14T03:58:30;44.70;;;17.85;;
60935;SDS011;46804;51.786;19.520;2024-02-14T04:02:33;38.28;;;15.25;;
60935;SDS011;46804;51.786;19.520;2024-02-14T04:06:35;34.10;;;14.10;;
60935;SDS011;46804;51.786;19.520;2024-02-14T04:10:36;25.52;;;12.90;;
60935;SDS011;46804;51.786;19.520;2024-02-14T04:14:37;20.98;;;11.23;;
60935;SDS011;46804;51.786;19.520;2024-02-14T04:18:38;18.55;;;11.02;;
60935;SDS011;46804;51.786;19.520;2024-02-14T04:22:39;29.13;;;13.63;;
60935;SDS011;46804;51.786;19.520;2024-02-14T04:26:39;26.65;;;13.50;;
60935;SDS011;46804;51.786;19.520;2024-02-14T04:30:40;34.50;;;15.25;;
60935;SDS011;46804;51.786;19.520;2024-02-14T04:34:42;27.33;;;14.40;;
60935;SDS011;46804;51.786;19.520;2024-02-14T04:38:44;25.48;;;13.50;;
60935;SDS011;46804;51.786;19.520;2024-02-14T04:42:44;29.20;;;14.43;;
60935;SDS011;46804;51.786;19.520;2024-02-14T04:46:45;23.77;;;15.20;;
60935;SDS011;46804;51.786;19.520;2024-02-14T04:50:46;28.52;;;13.13;;
60935;SDS011;46804;51.786;19.520;2024-02-14T04:54:47;28.33;;;12.55;;
60935;SDS011;46804;51.786;19.520;2024-02-14T04:58:48;21.42;;;11.93;;
60935;SDS011;46804;51.786;19.520;2024-02-14T05:02:48;24.60;;;13.30;;
60935;SDS011;46804;51.786;19.520;2024-02-14T05:06:50;23.88;;;13.27;;
60935;SDS011;46804;51.786;19.520;2024-02-14T05:10:50;19.27;;;12.40;;
60935;SDS011;46804;51.786;19.520;2024-02-14T05:14:51;24.50;;;13.35;;
60935;SDS011;46804;51.786;19.520;2024-02-14T05:18:52;25.70;;;12.77;;
60935;SDS011;46804;51.786;19.520;2024-02-14T05:22:53;23.25;;;12.73;;
60935;SDS011;46804;51.786;19.520;2024-02-14T05:26:54;25.75;;;13.40;;
60935;SDS011;46804;51.786;19.520;2024-02-14T05:30:54;30.98;;;14.43;;
60935;SDS011;46804;51.786;19.520;2024-02-14T05:34:56;28.00;;;14.07;;
60935;SDS011;46804;51.786;19.520;2024-02-14T05:38:57;26.70;;;12.38;;
60935;SDS011;46804;51.786;19.520;2024-02-14T05:42:57;30.42;;;15.50;;
60935;SDS011;46804;51.786;19.520;2024-02-14T05:46:59;29.00;;;15.10;;
60935;SDS011;46804;51.786;19.520;2024-02-14T05:51:00;32.00;;;14.15;;
60935;SDS011;46804;51.786;19.520;2024-02-14T05:55:01;24.20;;;14.30;;
60935;SDS011;46804;51.786;19.520;2024-02-14T05:59:02;29.63;;;14.63;;
60935;SDS011;46804;51.786;19.520;2024-02-14T06:03:03;25.98;;;13.52;;
60935;SDS011;46804;51.786;19.520;2024-02-14T06:07:06;22.65;;;14.55;;
60935;SDS011;46804;51.786;19.520;2024-02-14T06:11:10;31.23;;;16.83;;
60935;SDS011;46804;51.786;19.520;2024-02-14T06:15:12;39.25;;;18.77;;
60935;SDS011;46804;51.786;19.520;2024-02-14T06:19:13;36.97;;;16.50;;
60935;SDS011;46804;51.786;19.520;2024-02-14T06:23:14;32.13;;;16.20;;
60935;SDS011;46804;51.786;19.520;2024-02-14T06:27:15;30.02;;;15.77;;
60935;SDS011;46804;51.786;19.520;2024-02-14T06:31:16;28.38;;;16.00;;
60935;SDS011;46804;51.786;19.520;2024-02-14T06:35:16;28.95;;;15.45;;
60935;SDS011;46804;51.786;19.520;2024-02-14T06:39:19;37.53;;;16.05;;
60935;SDS011;46804;51.786;19.520;2024-02-14T06:43:21;40.00;;;16.50;;
60935;SDS011;46804;51.786;19.520;2024-02-14T06:47:21;36.17;;;16.08;;
60935;SDS011;46804;51.786;19.520;2024-02-14T06:51:23;40.78;;;17.85;;
60935;SDS011;46804;51.786;19.520;2024-02-14T06:55:24;29.55;;;16.50;;
60935;SDS011;46804;51.786;19.520;2024-02-14T06:59:26;35.67;;;17.17;;
60935;SDS011;46804;51.786;19.520;2024-02-14T07:03:27;40.92;;;16.75;;
60935;SDS011;46804;51.786;19.520;2024-02-14T07:07:27;30.80;;;13.87;;
60935;SDS011;46804;51.786;19.520;2024-02-14T07:11:28;42.05;;;16.15;;
60935;SDS011;46804;51.786;19.520;2024-02-14T07:15:29;32.20;;;14.15;;
60935;SDS011;46804;51.786;19.520;2024-02-14T07:19:29;37.83;;;17.92;;
60935;SDS011;46804;51.786;19.520;2024-02-14T07:23:30;34.45;;;16.55;;
60935;SDS011;46804;51.786;19.520;2024-02-14T07:27:31;41.90;;;20.20;;
60935;SDS011;46804;51.786;19.520;2024-02-14T07:31:32;55.97;;;26.15;;
60935;SDS011;46804;51.786;19.520;2024-02-14T07:35:34;53.38;;;24.65;;
60935;SDS011;46804;51.786;19.520;2024-02-14T07:39:37;57.95;;;25.98;;
60935;SDS011;46804;51.786;19.520;2024-02-14T07:43:37;28.40;;;15.77;;
60935;SDS011;46804;51.786;19.520;2024-02-14T07:47:38;36.42;;;14.43;;
60935;SDS011;46804;51.786;19.520;2024-02-14T07:51:40;30.58;;;15.15;;
60935;SDS011;46804;51.786;19.520;2024-02-14T07:55:41;36.03;;;14.80;;
60935;SDS011;46804;51.786;19.520;2024-02-14T07:59:42;36.65;;;18.67;;
60935;SDS011;46804;51.786;19.520;2024-02-14T08:03:43;41.60;;;17.27;;
60935;SDS011;46804;51.786;19.520;2024-02-14T08:07:45;34.37;;;16.63;;
60935;SDS011;46804;51.786;19.520;2024-02-14T08:11:47;34.25;;;18.88;;
60935;SDS011;46804;51.786;19.520;2024-02-14T08:15:47;33.30;;;16.77;;
60935;SDS011;46804;51.786;19.520;2024-02-14T08:19:48;24.75;;;13.70;;
60935;SDS011;46804;51.786;19.520;2024-02-14T08:23:49;28.70;;;13.32;;
60935;SDS011;46804;51.786;19.520;2024-02-14T08:27:51;26.13;;;12.25;;
60935;SDS011;46804;51.786;19.520;2024-02-14T08:31:52;31.90;;;13.75;;
60935;SDS011;46804;51.786;19.520;2024-02-14T08:35:53;30.77;;;11.00;;
60935;SDS011;46804;51.786;19.520;2024-02-14T08:39:57;28.10;;;12.93;;
60935;SDS011;46804;51.786;19.520;2024-02-14T08:43:58;24.15;;;12.25;;
60935;SDS011;46804;51.786;19.520;2024-02-14T08:47:59;24.27;;;11.82;;
60935;SDS011;46804;51.786;19.520;2024-02-14T08:51:59;19.42;;;10.23;;
60935;SDS011;46804;51.786;19.520;2024-02-14T08:56:00;22.20;;;11.10;;
60935;SDS011;46804;51.786;19.520;2024-02-14T09:00:01;20.92;;;8.80;;
60935;SDS011;46804;51.786;19.520;2024-02-14T09:04:03;18.25;;;10.32;;
60935;SDS011;46804;51.786;19.520;2024-02-14T09:08:04;13.77;;;8.52;;
60935;SDS011;46804;51.786;19.520;2024-02-14T09:12:05;14.50;;;8.15;;
60935;SDS011;46804;51.786;19.520;2024-02-14T09:16:06;18.27;;;9.52;;
60935;SDS011;46804;51.786;19.520;2024-02-14T09:20:08;20.55;;;9.30;;
60935;SDS011;46804;51.786;19.520;2024-02-14T09:24:10;17.40;;;9.30;;
60935;SDS011;46804;51.786;19.520;2024-02-14T09:28:11;15.52;;;6.53;;
60935;SDS011;46804;51.786;19.520;2024-02-14T09:32:14;13.68;;;6.18;;
60935;SDS011;46804;51.786;19.520;2024-02-14T09:36:15;10.90;;;6.28;;
60935;SDS011;46804;51.786;19.520;2024-02-14T09:40:16;12.77;;;5.68;;
60935;SDS011;46804;51.786;19.520;2024-02-14T09:44:17;8.38;;;5.65;;
60935;SDS011;46804;51.786;19.520;2024-02-14T09:48:18;9.20;;;5.47;;
60935;SDS011;46804;51.786;19.520;2024-02-14T09:52:20;13.45;;;6.18;;
60935;SDS011;46804;51.786;19.520;2024-02-14T09:56:22;13.90;;;6.57;;
60935;SDS011;46804;51.786;19.520;2024-02-14T10:00:23;10.43;;;6.13;;
60935;SDS011;46804;51.786;19.520;2024-02-14T10:04:24;13.02;;;5.90;;
60935;SDS011;46804;51.786;19.520;2024-02-14T10:08:25;12.55;;;5.68;;
60935;SDS011;46804;51.786;19.520;2024-02-14T10:12:28;13.13;;;5.82;;
60935;SDS011;46804;51.786;19.520;2024-02-14T10:16:29;10.93;;;4.97;;
60935;SDS011;46804;51.786;19.520;2024-02-14T10:20:30;8.60;;;5.32;;
60935;SDS011;46804;51.786;19.520;2024-02-14T10:24:34;14.90;;;5.00;;
60935;SDS011;46804;51.786;19.520;2024-02-14T10:28:34;13.93;;;4.80;;
60935;SDS011;46804;51.786;19.520;2024-02-14T10:32:36;10.40;;;5.05;;
60935;SDS011;46804;51.786;19.520;2024-02-14T10:36:37;10.65;;;5.18;;
60935;SDS011;46804;51.786;19.520;2024-02-14T10:40:40;10.27;;;4.65;;
60935;SDS011;46804;51.786;19.520;2024-02-14T10:44:43;9.18;;;5.40;;
60935;SDS011;46804;51.786;19.520;2024-02-14T10:48:45;11.98;;;5.88;;
60935;SDS011;46804;51.786;19.520;2024-02-14T10:52:46;12.15;;;6.38;;
60935;SDS011;46804;51.786;19.520;2024-02-14T10:56:49;12.80;;;4.70;;
60935;SDS011;46804;51.786;19.520;2024-02-14T11:04:53;12.07;;;5.00;;
60935;SDS011;46804;51.786;19.520;2024-02-14T11:08:55;7.97;;;4.90;;
60935;SDS011;46804;51.786;19.520;2024-02-14T11:13:02;19.35;;;5.20;;
60935;SDS011;46804;51.786;19.520;2024-02-14T11:17:02;9.77;;;4.30;;
60935;SDS011;46804;51.786;19.520;2024-02-14T11:21:04;7.32;;;4.05;;
60935;SDS011;46804;51.786;19.520;2024-02-14T11:25:14;8.57;;;4.68;;
60935;SDS011;46804;51.786;19.520;2024-02-14T11:29:15;8.00;;;4.18;;
60935;SDS011;46804;51.786;19.520;2024-02-14T11:33:17;6.63;;;3.65;;
60935;SDS011;46804;51.786;19.520;2024-02-14T11:37:19;8.45;;;4.70;;
60935;SDS011;46804;51.786;19.520;2024-02-14T11:41:21;7.32;;;4.28;;
60935;SDS011;46804;51.786;19.520;2024-02-14T11:45:21;8.13;;;3.72;;
60935;SDS011;46804;51.786;19.520;2024-02-14T11:49:22;11.90;;;5.22;;
60935;SDS011;46804;51.786;19.520;2024-02-14T11:53:23;12.65;;;4.80;;
60935;SDS011;46804;51.786;19.520;2024-02-14T11:57:24;7.03;;;4.05;;
60935;SDS011;46804;51.786;19.520;2024-02-14T12:01:26;8.57;;;3.72;;
60935;SDS011;46804;51.786;19.520;2024-02-14T12:05:28;11.15;;;4.40;;
60935;SDS011;46804;51.786;19.520;2024-02-14T12:09:29;8.68;;;3.70;;
60935;SDS011;46804;51.786;19.520;2024-02-14T12:13:30;13.15;;;5.75;;
60935;SDS011;46804;51.786;19.520;2024-02-14T12:17:38;11.45;;;4.28;;
60935;SDS011;46804;51.786;19.520;2024-02-14T12:21:39;5.35;;;3.17;;
60935;SDS011;46804;51.786;19.520;2024-02-14T12:25:40;6.38;;;3.75;;
60935;SDS011;46804;51.786;19.520;2024-02-14T12:29:41;9.65;;;4.63;;
60935;SDS011;46804;51.786;19.520;2024-02-14T12:33:41;9.93;;;4.68;;
60935;SDS011;46804;51.786;19.520;2024-02-14T12:37:42;8.73;;;4.05;;
60935;SDS011;46804;51.786;19.520;2024-02-14T12:41:43;10.68;;;4.38;;
60935;SDS011;46804;51.786;19.520;2024-02-14T12:45:44;14.63;;;8.35;;
60935;SDS011;46804;51.786;19.520;2024-02-14T12:49:44;8.40;;;4.50;;
60935;SDS011;46804;51.786;19.520;2024-02-14T12:53:45;15.73;;;6.78;;
60935;SDS011;46804;51.786;19.520;2024-02-14T12:57:46;13.20;;;4.63;;
60935;SDS011;46804;51.786;19.520;2024-02-14T13:01:47;9.88;;;4.88;;
60935;SDS011;46804;51.786;19.520;2024-02-14T13:05:48;14.10;;;4.93;;
60935;SDS011;46804;51.786;19.520;2024-02-14T13:09:49;23.10;;;8.18;;
60935;SDS011;46804;51.786;19.520;2024-02-14T13:13:51;10.77;;;5.45;;
60935;SDS011;46804;51.786;19.520;2024-02-14T13:17:52;9.48;;;5.55;;
60935;SDS011;46804;51.786;19.520;2024-02-14T13:21:53;14.45;;;6.32;;
60935;SDS011;46804;51.786;19.520;2024-02-14T13:25:53;14.05;;;6.15;;
60935;SDS011;46804;51.786;19.520;2024-02-14T13:29:54;19.65;;;7.47;;
60935;SDS011;46804;51.786;19.520;2024-02-14T13:33:55;8.07;;;4.30;;
60935;SDS011;46804;51.786;19.520;2024-02-14T13:37:56;11.30;;;5.32;;
60935;SDS011;46804;51.786;19.520;2024-02-14T13:41:57;11.10;;;5.75;;
60935;SDS011;46804;51.786;19.520;2024-02-14T13:46:00;15.02;;;7.85;;
60935;SDS011;46804;51.786;19.520;2024-02-14T13:50:01;14.95;;;6.25;;
60935;SDS011;46804;51.786;19.520;2024-02-14T13:54:03;13.35;;;5.70;;
60935;SDS011;46804;51.786;19.520;2024-02-14T13:58:04;12.82;;;6.30;;
60935;SDS011;46804;51.786;19.520;2024-02-14T14:02:04;19.27;;;9.40;;
60935;SDS011;46804;51.786;19.520;2024-02-14T14:06:05;12.50;;;5.90;;
60935;SDS011;46804;51.786;19.520;2024-02-14T14:10:08;16.67;;;7.33;;
60935;SDS011;46804;51.786;19.520;2024-02-14T14:14:09;12.10;;;5.45;;
60935;SDS011;46804;51.786;19.520;2024-02-14T14:18:16;9.07;;;5.65;;
60935;SDS011;46804;51.786;19.520;2024-02-14T14:22:16;15.60;;;7.00;;
60935;SDS011;46804;51.786;19.520;2024-02-14T14:26:17;14.52;;;6.45;;
60935;SDS011;46804;51.786;19.520;2024-02-14T14:30:18;11.32;;;5.75;;
60935;SDS011;46804;51.786;19.520;2024-02-14T14:34:19;13.40;;;5.55;;
60935;SDS011;46804;51.786;19.520;2024-02-14T14:38:20;17.08;;;7.47;;
60935;SDS011;46804;51.786;19.520;2024-02-14T14:42:21;21.58;;;7.88;;
60935;SDS011;46804;51.786;19.520;2024-02-14T14:46:22;11.07;;;6.25;;
60935;SDS011;46804;51.786;19.520;2024-02-14T14:50:23;12.30;;;7.88;;
60935;SDS011;46804;51.786;19.520;2024-02-14T14:54:25;16.25;;;7.45;;
60935;SDS011;46804;51.786;19.520;2024-02-14T14:58:26;16.65;;;6.63;;
60935;SDS011;46804;51.786;19.520;2024-02-14T15:02:27;12.88;;;5.68;;
60935;SDS011;46804;51.786;19.520;2024-02-14T15:06:28;9.77;;;5.38;;
60935;SDS011;46804;51.786;19.520;2024-02-14T15:10:29;12.45;;;5.90;;
60935;SDS011;46804;51.786;19.520;2024-02-14T15:14:30;13.52;;;5.93;;
60935;SDS011;46804;51.786;19.520;2024-02-14T15:18:31;15.32;;;6.85;;
60935;SDS011;46804;51.786;19.520;2024-02-14T15:22:31;25.23;;;11.70;;
60935;SDS011;46804;51.786;19.520;2024-02-14T15:26:32;13.27;;;7.30;;
60935;SDS011;46804;51.786;19.520;2024-02-14T15:30:49;22.08;;;8.00;;
60935;SDS011;46804;51.786;19.520;2024-02-14T15:35:08;18.40;;;7.90;;
60935;SDS011;46804;51.786;19.520;2024-02-14T15:39:09;18.83;;;8.00;;
60935;SDS011;46804;51.786;19.520;2024-02-14T15:43:10;11.60;;;5.85;;
60935;SDS011;46804;51.786;19.520;2024-02-14T15:47:11;16.50;;;6.88;;
60935;SDS011;46804;51.786;19.520;2024-02-14T15:51:12;16.00;;;6.72;;
60935;SDS011;46804;51.786;19.520;2024-02-14T15:55:13;13.40;;;6.35;;
60935;SDS011;46804;51.786;19.520;2024-02-14T15:59:14;18.05;;;8.25;;
60935;SDS011;46804;51.786;19.520;2024-02-14T16:03:15;16.08;;;7.35;;
60935;SDS011;46804;51.786;19.520;2024-02-14T16:07:17;12.32;;;7.32;;
60935;SDS011;46804;51.786;19.520;2024-02-14T16:11:18;19.90;;;8.35;;
60935;SDS011;46804;51.786;19.520;2024-02-14T16:15:19;16.88;;;7.93;;
60935;SDS011;46804;51.786;19.520;2024-02-14T16:19:20;16.42;;;7.57;;
60935;SDS011;46804;51.786;19.520;2024-02-14T16:23:20;14.48;;;7.75;;
60935;SDS011;46804;51.786;19.520;2024-02-14T16:27:21;21.45;;;8.35;;
60935;SDS011;46804;51.786;19.520;2024-02-14T16:31:22;22.08;;;8.30;;
60935;SDS011;46804;51.786;19.520;2024-02-14T16:35:23;23.88;;;9.63;;
60935;SDS011;46804;51.786;19.520;2024-02-14T16:39:24;18.65;;;9.57;;
60935;SDS011;46804;51.786;19.520;2024-02-14T16:43:25;19.65;;;9.07;;
60935;SDS011;46804;51.786;19.520;2024-02-14T16:47:26;22.20;;;10.45;;
60935;SDS011;46804;51.786;19.520;2024-02-14T16:51:27;179.45;;;65.70;;
60935;SDS011;46804;51.786;19.520;2024-02-14T16:55:28;22.05;;;11.25;;
60935;SDS011;46804;51.786;19.520;2024-02-14T16:59:29;21.50;;;9.57;;
60935;SDS011;46804;51.786;19.520;2024-02-14T17:03:29;19.45;;;8.65;;
60935;SDS011;46804;51.786;19.520;2024-02-14T17:07:30;16.45;;;8.25;;
60935;SDS011;46804;51.786;19.520;2024-02-14T17:11:31;15.43;;;8.40;;
60935;SDS011;46804;51.786;19.520;2024-02-14T17:15:32;18.90;;;9.35;;
60935;SDS011;46804;51.786;19.520;2024-02-14T17:19:33;14.80;;;8.07;;
60935;SDS011;46804;51.786;19.520;2024-02-14T17:23:34;15.95;;;9.60;;
60935;SDS011;46804;51.786;19.520;2024-02-14T17:27:35;18.08;;;9.00;;
60935;SDS011;46804;51.786;19.520;2024-02-14T17:31:37;23.27;;;10.00;;
60935;SDS011;46804;51.786;19.520;2024-02-14T17:35:38;15.57;;;8.18;;
60935;SDS011;46804;51.786;19.520;2024-02-14T17:39:38;21.52;;;9.02;;
60935;SDS011;46804;51.786;19.520;2024-02-14T17:43:39;22.38;;;10.23;;
60935;SDS011;46804;51.786;19.520;2024-02-14T17:47:41;19.48;;;8.80;;
60935;SDS011;46804;51.786;19.520;2024-02-14T17:51:42;22.58;;;10.13;;
60935;SDS011;46804;51.786;19.520;2024-02-14T17:55:47;20.83;;;9.88;;
60935;SDS011;46804;51.786;19.520;2024-02-14T17:59:49;21.67;;;10.15;;
60935;SDS011;46804;51.786;19.520;2024-02-14T18:03:49;18.20;;;10.00;;
60935;SDS011;46804;51.786;19.520;2024-02-14T18:07:50;20.63;;;10.65;;
60935;SDS011;46804;51.786;19.520;2024-02-14T18:11:51;24.40;;;10.40;;
60935;SDS011;46804;51.786;19.520;2024-02-14T18:15:52;26.73;;;13.07;;
60935;SDS011;46804;51.786;19.520;2024-02-14T18:19:52;25.15;;;11.75;;
60935;SDS011;46804;51.786;19.520;2024-02-14T18:23:53;17.88;;;9.93;;
60935;SDS011;46804;51.786;19.520;2024-02-14T18:27:55;26.02;;;10.95;;
60935;SDS011;46804;51.786;19.520;2024-02-14T18:31:56;24.73;;;11.63;;
60935;SDS011;46804;51.786;19.520;2024-02-14T18:35:57;26.67;;;12.70;;
60935;SDS011;46804;51.786;19.520;2024-02-14T18:39:58;25.42;;;11.82;;
60935;SDS011;46804;51.786;19.520;2024-02-14T18:44:00;30.98;;;11.55;;
60935;SDS011;46804;51.786;19.520;2024-02-14T18:48:04;24.25;;;12.52;;
60935;SDS011;46804;51.786;19.520;2024-02-14T18:52:05;24.67;;;11.57;;
60935;SDS011;46804;51.786;19.520;2024-02-14T18:56:06;23.48;;;11.90;;
60935;SDS011;46804;51.786;19.520;2024-02-14T19:00:07;27.80;;;12.43;;
60935;SDS011;46804;51.786;19.520;2024-02-14T19:04:10;26.42;;;13.00;;
60935;SDS011;46804;51.786;19.520;2024-02-14T19:08:11;32.17;;;13.30;;
60935;SDS011;46804;51.786;19.520;2024-02-14T19:12:12;37.97;;;15.27;;
60935;SDS011;46804;51.786;19.520;2024-02-14T19:16:14;21.50;;;11.35;;
60935;SDS011;46804;51.786;19.520;2024-02-14T19:20:15;24.52;;;11.52;;
60935;SDS011;46804;51.786;19.520;2024-02-14T19:24:16;36.10;;;13.45;;
60935;SDS011;46804;51.786;19.520;2024-02-14T19:28:17;33.75;;;13.25;;
60935;SDS011;46804;51.786;19.520;2024-02-14T19:32:17;24.88;;;12.63;;
60935;SDS011;46804;51.786;19.520;2024-02-14T19:36:18;31.25;;;14.13;;
60935;SDS011;46804;51.786;19.520;2024-02-14T19:40:19;33.22;;;13.80;;
60935;SDS011;46804;51.786;19.520;2024-02-14T19:44:20;43.50;;;16.13;;
60935;SDS011;46804;51.786;19.520;2024-02-14T19:48:20;37.03;;;14.48;;
60935;SDS011;46804;51.786;19.520;2024-02-14T19:52:22;31.70;;;12.10;;
60935;SDS011;46804;51.786;19.520;2024-02-14T19:56:23;26.42;;;12.65;;
60935;SDS011;46804;51.786;19.520;2024-02-14T20:00:24;28.15;;;13.15;;
60935;SDS011;46804;51.786;19.520;2024-02-14T20:04:25;25.30;;;13.68;;
60935;SDS011;46804;51.786;19.520;2024-02-14T20:08:28;28.00;;;13.07;;
60935;SDS011;46804;51.786;19.520;2024-02-14T20:12:29;23.83;;;12.82;;
60935;SDS011;46804;51.786;19.520;2024-02-14T20:16:33;28.55;;;13.10;;
60935;SDS011;46804;51.786;19.520;2024-02-14T20:20:34;26.40;;;12.40;;
60935;SDS011;46804;51.786;19.520;2024-02-14T20:24:35;30.48;;;14.38;;
60935;SDS011;46804;51.786;19.520;2024-02-14T20:28:36;30.90;;;13.23;;
60935;SDS011;46804;51.786;19.520;2024-02-14T20:32:37;29.50;;;13.27;;
60935;SDS011;46804;51.786;19.520;2024-02-14T20:36:41;26.17;;;12.52;;
60935;SDS011;46804;51.786;19.520;2024-02-14T20:40:42;23.00;;;12.30;;
60935;SDS011;46804;51.786;19.520;2024-02-14T20:44:43;29.10;;;13.65;;
60935;SDS011;46804;51.786;19.520;2024-02-14T20:48:44;26.35;;;13.68;;
60935;SDS011;46804;51.786;19.520;2024-02-14T20:52:45;30.67;;;13.38;;
60935;SDS011;46804;51.786;19.520;2024-02-14T20:56:46;22.38;;;13.40;;
60935;SDS011;46804;51.786;19.520;2024-02-14T21:00:46;26.48;;;13.13;;
60935;SDS011;46804;51.786;19.520;2024-02-14T21:04:47;27.20;;;13.50;;
60935;SDS011;46804;51.786;19.520;2024-02-14T21:08:48;22.45;;;12.32;;
60935;SDS011;46804;51.786;19.520;2024-02-14T21:12:49;33.15;;;13.70;;
60935;SDS011;46804;51.786;19.520;2024-02-14T21:16:49;30.45;;;12.20;;
60935;SDS011;46804;51.786;19.520;2024-02-14T21:20:50;29.85;;;12.27;;
60935;SDS011;46804;51.786;19.520;2024-02-14T21:24:51;28.30;;;13.77;;
60935;SDS011;46804;51.786;19.520;2024-02-14T21:28:52;26.85;;;13.38;;
60935;SDS011;46804;51.786;19.520;2024-02-14T21:32:52;28.55;;;13.50;;
60935;SDS011;46804;51.786;19.520;2024-02-14T21:36:54;26.63;;;12.40;;
60935;SDS011;46804;51.786;19.520;2024-02-14T21:40:57;23.95;;;13.00;;
60935;SDS011;46804;51.786;19.520;2024-02-14T21:44:58;27.55;;;14.43;;
60935;SDS011;46804;51.786;19.520;2024-02-14T21:48:59;28.08;;;12.15;;
60935;SDS011;46804;51.786;19.520;2024-02-14T21:53:05;34.38;;;13.65;;
60935;SDS011;46804;51.786;19.520;2024-02-14T21:57:05;26.10;;;13.10;;
60935;SDS011;46804;51.786;19.520;2024-02-14T22:01:06;30.80;;;13.13;;
60935;SDS011;46804;51.786;19.520;2024-02-14T22:05:08;29.35;;;14.32;;
60935;SDS011;46804;51.786;19.520;2024-02-14T22:09:09;31.95;;;14.48;;
60935;SDS011;46804;51.786;19.520;2024-02-14T22:13:09;33.70;;;14.90;;
60935;SDS011;46804;51.786;19.520;2024-02-14T22:17:10;28.83;;;13.35;;
60935;SDS011;46804;51.786;19.520;2024-02-14T22:25:15;28.30;;;14.90;;
60935;SDS011;46804;51.786;19.520;2024-02-14T22:29:15;32.92;;;15.63;;
60935;SDS011;46804;51.786;19.520;2024-02-14T22:33:16;38.80;;;15.40;;
60935;SDS011;46804;51.786;19.520;2024-02-14T22:37:21;32.40;;;15.52;;
60935;SDS011;46804;51.786;19.520;2024-02-14T22:41:22;30.73;;;15.18;;
60935;SDS011;46804;51.786;19.520;2024-02-14T22:45:23;33.40;;;15.65;;
60935;SDS011;46804;51.786;19.520;2024-02-14T22:49:23;37.55;;;15.63;;
60935;SDS011;46804;51.786;19.520;2024-02-14T22:53:24;30.27;;;15.05;;
60935;SDS011;46804;51.786;19.520;2024-02-14T22:57:25;42.78;;;18.17;;
60935;SDS011;46804;51.786;19.520;2024-02-14T23:01:26;57.38;;;21.63;;
60935;SDS011;46804;51.786;19.520;2024-02-14T23:05:26;48.58;;;18.92;;
60935;SDS011;46804;51.786;19.520;2024-02-14T23:09:27;38.55;;;17.08;;
60935;SDS011;46804;51.786;19.520;2024-02-14T23:13:28;34.80;;;15.50;;
60935;SDS011;46804;51.786;19.520;2024-02-14T23:17:28;32.20;;;15.95;;
60935;SDS011;46804;51.786;19.520;2024-02-14T23:21:29;32.58;;;15.27;;
60935;SDS011;46804;51.786;19.520;2024-02-14T23:25:30;36.05;;;15.63;;
60935;SDS011;46804;51.786;19.520;2024-02-14T23:29:31;31.88;;;13.80;;